sensor_id;sensor_type;location;lat;lon;timestamp;P1;durP1;ratioP1;P2;durP2;ratioP2
31716;SDS011;18301;51.076;17.046;2022-09-09T00:02:31;8.77;;;6.20;;
31716;SDS011;18301;51.076;17.046;2022-09-09T00:07:43;11.80;;;6.60;;
31716;SDS011;18301;51.076;17.046;2022-09-09T00:13:01;9.30;;;6.72;;
31716;SDS011;18301;51.076;17.046;2022-09-09T00:23:22;8.02;;;7.00;;
31716;SDS011;18301;51.076;17.046;2022-09-09T00:28:26;7.38;;;6.07;;
31716;SDS011;18301;51.076;17.046;2022-09-09T00:33:31;8.05;;;6.45;;
31716;SDS011;18301;51.076;17.046;2022-09-09T00:38:33;9.52;;;6.43;;
31716;SDS011;18301;51.076;17.046;2022-09-09T00:43:39;9.13;;;5.97;;
31716;SDS011;18301;51.076;17.046;2022-09-09T00:48:46;8.02;;;5.47;;
31716;SDS011;18301;51.076;17.046;2022-09-09T01:10:42;8.07;;;5.45;;
31716;SDS011;18301;51.076;17.046;2022-09-09T01:15:50;7.88;;;5.68;;
31716;SDS011;18301;51.076;17.046;2022-09-09T01:21:04;7.63;;;5.28;;
31716;SDS011;18301;51.076;17.046;2022-09-09T01:26:19;6.35;;;5.70;;
31716;SDS011;18301;51.076;17.046;2022-09-09T01:31:27;7.05;;;5.80;;
31716;SDS011;18301;51.076;17.046;2022-09-09T01:41:44;5.97;;;5.38;;
31716;SDS011;18301;51.076;17.046;2022-09-09T01:46:45;5.50;;;4.97;;
31716;SDS011;18301;51.076;17.046;2022-09-09T01:51:52;6.20;;;5.60;;
31716;SDS011;18301;51.076;17.046;2022-09-09T02:08:00;5.88;;;5.28;;
31716;SDS011;18301;51.076;17.046;2022-09-09T02:13:11;6.65;;;4.97;;
31716;SDS011;18301;51.076;17.046;2022-09-09T02:18:16;6.43;;;5.15;;
31716;SDS011;18301;51.076;17.046;2022-09-09T02:23:25;5.90;;;5.32;;
31716;SDS011;18301;51.076;17.046;2022-09-09T02:28:29;5.90;;;5.25;;
31716;SDS011;18301;51.076;17.046;2022-09-09T02:33:35;7.68;;;5.95;;
31716;SDS011;18301;51.076;17.046;2022-09-09T02:38:43;7.05;;;5.60;;
31716;SDS011;18301;51.076;17.046;2022-09-09T02:43:51;6.38;;;4.82;;
31716;SDS011;18301;51.076;17.046;2022-09-09T02:49:03;6.93;;;5.35;;
31716;SDS011;18301;51.076;17.046;2022-09-09T02:54:14;6.90;;;5.28;;
31716;SDS011;18301;51.076;17.046;2022-09-09T02:59:22;6.85;;;5.22;;
31716;SDS011;18301;51.076;17.046;2022-09-09T03:04:26;5.80;;;5.07;;
31716;SDS011;18301;51.076;17.046;2022-09-09T03:09:27;6.22;;;5.35;;
31716;SDS011;18301;51.076;17.046;2022-09-09T03:14:29;7.05;;;5.22;;
31716;SDS011;18301;51.076;17.046;2022-09-09T03:19:31;7.07;;;5.20;;
31716;SDS011;18301;51.076;17.046;2022-09-09T03:24:33;6.78;;;5.30;;
31716;SDS011;18301;51.076;17.046;2022-09-09T03:29:34;7.68;;;5.45;;
31716;SDS011;18301;51.076;17.046;2022-09-09T03:34:36;6.22;;;5.63;;
31716;SDS011;18301;51.076;17.046;2022-09-09T03:39:40;5.70;;;5.00;;
31716;SDS011;18301;51.076;17.046;2022-09-09T03:44:41;5.88;;;5.10;;
31716;SDS011;18301;51.076;17.046;2022-09-09T03:49:43;5.38;;;4.88;;
31716;SDS011;18301;51.076;17.046;2022-09-09T03:54:45;6.45;;;5.32;;
31716;SDS011;18301;51.076;17.046;2022-09-09T03:59:46;6.32;;;5.72;;
31716;SDS011;18301;51.076;17.046;2022-09-09T04:04:48;7.25;;;5.30;;
31716;SDS011;18301;51.076;17.046;2022-09-09T04:09:49;7.43;;;5.30;;
31716;SDS011;18301;51.076;17.046;2022-09-09T04:14:51;6.57;;;5.43;;
31716;SDS011;18301;51.076;17.046;2022-09-09T04:19:52;6.53;;;5.28;;
31716;SDS011;18301;51.076;17.046;2022-09-09T04:24:54;6.78;;;5.57;;
31716;SDS011;18301;51.076;17.046;2022-09-09T04:29:56;6.82;;;5.75;;
31716;SDS011;18301;51.076;17.046;2022-09-09T04:34:58;7.82;;;6.13;;
31716;SDS011;18301;51.076;17.046;2022-09-09T04:40:00;5.97;;;5.35;;
31716;SDS011;18301;51.076;17.046;2022-09-09T04:45:03;6.18;;;5.57;;
31716;SDS011;18301;51.076;17.046;2022-09-09T04:50:05;7.45;;;5.80;;
31716;SDS011;18301;51.076;17.046;2022-09-09T04:55:07;9.55;;;5.60;;
31716;SDS011;18301;51.076;17.046;2022-09-09T05:00:10;6.45;;;5.32;;
31716;SDS011;18301;51.076;17.046;2022-09-09T05:05:13;6.97;;;5.43;;
31716;SDS011;18301;51.076;17.046;2022-09-09T05:10:14;6.35;;;5.75;;
31716;SDS011;18301;51.076;17.046;2022-09-09T05:15:17;7.00;;;5.63;;
31716;SDS011;18301;51.076;17.046;2022-09-09T05:20:19;5.82;;;5.30;;
31716;SDS011;18301;51.076;17.046;2022-09-09T05:25:20;6.05;;;5.45;;
31716;SDS011;18301;51.076;17.046;2022-09-09T05:30:23;5.63;;;4.90;;
31716;SDS011;18301;51.076;17.046;2022-09-09T05:35:26;6.40;;;4.72;;
31716;SDS011;18301;51.076;17.046;2022-09-09T05:40:28;4.82;;;4.30;;
31716;SDS011;18301;51.076;17.046;2022-09-09T05:45:29;5.90;;;4.47;;
31716;SDS011;18301;51.076;17.046;2022-09-09T05:50:31;5.07;;;4.68;;
31716;SDS011;18301;51.076;17.046;2022-09-09T05:55:32;4.43;;;4.00;;
31716;SDS011;18301;51.076;17.046;2022-09-09T06:00:34;5.63;;;4.05;;
31716;SDS011;18301;51.076;17.046;2022-09-09T06:05:36;4.45;;;4.05;;
31716;SDS011;18301;51.076;17.046;2022-09-09T06:10:37;6.93;;;4.10;;
31716;SDS011;18301;51.076;17.046;2022-09-09T06:15:39;5.88;;;3.95;;
31716;SDS011;18301;51.076;17.046;2022-09-09T06:20:41;4.50;;;3.72;;
31716;SDS011;18301;51.076;17.046;2022-09-09T06:25:42;6.28;;;4.30;;
31716;SDS011;18301;51.076;17.046;2022-09-09T06:30:44;5.35;;;3.42;;
31716;SDS011;18301;51.076;17.046;2022-09-09T06:35:51;4.47;;;3.33;;
31716;SDS011;18301;51.076;17.046;2022-09-09T06:40:54;5.90;;;3.60;;
31716;SDS011;18301;51.076;17.046;2022-09-09T06:46:20;3.88;;;3.20;;
31716;SDS011;18301;51.076;17.046;2022-09-09T06:51:23;3.90;;;3.00;;
31716;SDS011;18301;51.076;17.046;2022-09-09T07:01:39;3.83;;;2.75;;
31716;SDS011;18301;51.076;17.046;2022-09-09T07:06:43;4.57;;;2.97;;
31716;SDS011;18301;51.076;17.046;2022-09-09T07:11:48;6.55;;;2.80;;
31716;SDS011;18301;51.076;17.046;2022-09-09T07:16:52;3.30;;;2.60;;
31716;SDS011;18301;51.076;17.046;2022-09-09T07:21:59;3.63;;;2.65;;
31716;SDS011;18301;51.076;17.046;2022-09-09T07:27:01;3.70;;;2.30;;
31716;SDS011;18301;51.076;17.046;2022-09-09T07:32:04;3.20;;;2.42;;
31716;SDS011;18301;51.076;17.046;2022-09-09T07:37:06;4.32;;;2.50;;
31716;SDS011;18301;51.076;17.046;2022-09-09T07:42:07;3.05;;;2.63;;
31716;SDS011;18301;51.076;17.046;2022-09-09T07:47:12;4.95;;;2.90;;
31716;SDS011;18301;51.076;17.046;2022-09-09T07:52:13;4.80;;;2.50;;
31716;SDS011;18301;51.076;17.046;2022-09-09T07:57:19;4.22;;;2.10;;
31716;SDS011;18301;51.076;17.046;2022-09-09T08:02:21;4.57;;;1.80;;
31716;SDS011;18301;51.076;17.046;2022-09-09T08:07:24;4.78;;;2.53;;
31716;SDS011;18301;51.076;17.046;2022-09-09T08:12:25;3.83;;;1.92;;
31716;SDS011;18301;51.076;17.046;2022-09-09T08:17:27;3.85;;;1.75;;
31716;SDS011;18301;51.076;17.046;2022-09-09T08:22:28;3.80;;;1.45;;
31716;SDS011;18301;51.076;17.046;2022-09-09T08:27:30;2.50;;;1.60;;
31716;SDS011;18301;51.076;17.046;2022-09-09T08:32:33;4.47;;;1.85;;
31716;SDS011;18301;51.076;17.046;2022-09-09T08:37:36;2.22;;;1.60;;
31716;SDS011;18301;51.076;17.046;2022-09-09T08:42:38;11.35;;;2.30;;
31716;SDS011;18301;51.076;17.046;2022-09-09T08:53:21;5.30;;;1.95;;
31716;SDS011;18301;51.076;17.046;2022-09-09T08:58:28;7.27;;;1.90;;
31716;SDS011;18301;51.076;17.046;2022-09-09T09:09:14;3.85;;;1.80;;
31716;SDS011;18301;51.076;17.046;2022-09-09T09:14:33;3.45;;;1.70;;
31716;SDS011;18301;51.076;17.046;2022-09-09T09:19:38;2.63;;;1.63;;
31716;SDS011;18301;51.076;17.046;2022-09-09T09:24:48;2.08;;;1.40;;
31716;SDS011;18301;51.076;17.046;2022-09-09T09:29:52;1.90;;;1.50;;
31716;SDS011;18301;51.076;17.046;2022-09-09T09:35:18;3.08;;;1.60;;
31716;SDS011;18301;51.076;17.046;2022-09-09T09:40:21;2.30;;;1.48;;
31716;SDS011;18301;51.076;17.046;2022-09-09T09:45:28;1.80;;;1.20;;
31716;SDS011;18301;51.076;17.046;2022-09-09T09:50:35;1.90;;;1.40;;
31716;SDS011;18301;51.076;17.046;2022-09-09T09:55:57;1.65;;;1.40;;
31716;SDS011;18301;51.076;17.046;2022-09-09T10:01:02;2.05;;;1.10;;
31716;SDS011;18301;51.076;17.046;2022-09-09T10:06:04;2.30;;;1.10;;
31716;SDS011;18301;51.076;17.046;2022-09-09T10:26:51;1.07;;;1.00;;
31716;SDS011;18301;51.076;17.046;2022-09-09T10:43:07;2.28;;;1.30;;
31716;SDS011;18301;51.076;17.046;2022-09-09T10:53:52;1.98;;;1.00;;
31716;SDS011;18301;51.076;17.046;2022-09-09T10:59:18;2.50;;;1.20;;
31716;SDS011;18301;51.076;17.046;2022-09-09T11:04:27;2.60;;;1.27;;
31716;SDS011;18301;51.076;17.046;2022-09-09T11:09:37;1.35;;;1.00;;
31716;SDS011;18301;51.076;17.046;2022-09-09T11:14:48;1.58;;;1.10;;
31716;SDS011;18301;51.076;17.046;2022-09-09T11:19:57;3.47;;;1.30;;
31716;SDS011;18301;51.076;17.046;2022-09-09T11:25:00;2.33;;;1.00;;
31716;SDS011;18301;51.076;17.046;2022-09-09T11:36:01;1.63;;;1.48;;
31716;SDS011;18301;51.076;17.046;2022-09-09T11:41:08;1.20;;;1.10;;
31716;SDS011;18301;51.076;17.046;2022-09-09T11:46:11;2.80;;;1.25;;
31716;SDS011;18301;51.076;17.046;2022-09-09T12:01:43;3.85;;;1.30;;
31716;SDS011;18301;51.076;17.046;2022-09-09T12:06:47;1.70;;;1.20;;
31716;SDS011;18301;51.076;17.046;2022-09-09T12:11:52;2.40;;;1.15;;
31716;SDS011;18301;51.076;17.046;2022-09-09T12:22:26;2.17;;;1.42;;
31716;SDS011;18301;51.076;17.046;2022-09-09T12:33:08;1.80;;;1.15;;
31716;SDS011;18301;51.076;17.046;2022-09-09T12:38:15;1.52;;;1.20;;
31716;SDS011;18301;51.076;17.046;2022-09-09T12:43:25;1.95;;;1.20;;
31716;SDS011;18301;51.076;17.046;2022-09-09T12:48:35;2.45;;;1.33;;
31716;SDS011;18301;51.076;17.046;2022-09-09T12:53:40;1.55;;;1.17;;
31716;SDS011;18301;51.076;17.046;2022-09-09T12:58:44;2.33;;;1.30;;
31716;SDS011;18301;51.076;17.046;2022-09-09T13:03:48;1.73;;;1.10;;
31716;SDS011;18301;51.076;17.046;2022-09-09T13:08:51;2.65;;;1.33;;
31716;SDS011;18301;51.076;17.046;2022-09-09T13:13:54;3.13;;;1.20;;
31716;SDS011;18301;51.076;17.046;2022-09-09T13:19:07;1.90;;;1.20;;
31716;SDS011;18301;51.076;17.046;2022-09-09T13:24:25;2.88;;;1.23;;
31716;SDS011;18301;51.076;17.046;2022-09-09T13:29:31;1.52;;;1.23;;
31716;SDS011;18301;51.076;17.046;2022-09-09T13:34:34;2.50;;;1.17;;
31716;SDS011;18301;51.076;17.046;2022-09-09T13:39:36;3.97;;;1.15;;
31716;SDS011;18301;51.076;17.046;2022-09-09T13:44:39;1.75;;;1.30;;
31716;SDS011;18301;51.076;17.046;2022-09-09T13:49:42;3.15;;;1.58;;
31716;SDS011;18301;51.076;17.046;2022-09-09T13:54:51;4.00;;;1.73;;
31716;SDS011;18301;51.076;17.046;2022-09-09T13:59:53;2.55;;;1.13;;
31716;SDS011;18301;51.076;17.046;2022-09-09T14:05:06;1.85;;;1.30;;
31716;SDS011;18301;51.076;17.046;2022-09-09T14:10:08;1.50;;;1.20;;
31716;SDS011;18301;51.076;17.046;2022-09-09T14:15:11;1.85;;;1.35;;
31716;SDS011;18301;51.076;17.046;2022-09-09T14:20:13;1.67;;;1.25;;
31716;SDS011;18301;51.076;17.046;2022-09-09T14:25:16;3.15;;;1.42;;
31716;SDS011;18301;51.076;17.046;2022-09-09T14:30:18;3.72;;;1.42;;
31716;SDS011;18301;51.076;17.046;2022-09-09T14:35:19;2.45;;;1.33;;
31716;SDS011;18301;51.076;17.046;2022-09-09T14:40:21;1.67;;;1.50;;
31716;SDS011;18301;51.076;17.046;2022-09-09T14:45:23;1.63;;;1.50;;
31716;SDS011;18301;51.076;17.046;2022-09-09T14:50:26;2.92;;;1.50;;
31716;SDS011;18301;51.076;17.046;2022-09-09T14:55:27;1.80;;;1.40;;
31716;SDS011;18301;51.076;17.046;2022-09-09T15:00:30;2.13;;;1.30;;
31716;SDS011;18301;51.076;17.046;2022-09-09T15:05:31;3.75;;;1.40;;
31716;SDS011;18301;51.076;17.046;2022-09-09T15:10:33;2.65;;;1.42;;
31716;SDS011;18301;51.076;17.046;2022-09-09T15:15:35;2.55;;;1.48;;
31716;SDS011;18301;51.076;17.046;2022-09-09T15:20:36;3.03;;;1.55;;
31716;SDS011;18301;51.076;17.046;2022-09-09T15:25:50;2.33;;;1.55;;
31716;SDS011;18301;51.076;17.046;2022-09-09T15:30:53;2.22;;;1.40;;
31716;SDS011;18301;51.076;17.046;2022-09-09T15:35:55;2.13;;;1.58;;
31716;SDS011;18301;51.076;17.046;2022-09-09T15:40:57;4.00;;;1.90;;
31716;SDS011;18301;51.076;17.046;2022-09-09T15:46:02;2.90;;;1.88;;
31716;SDS011;18301;51.076;17.046;2022-09-09T15:51:28;4.55;;;1.77;;
31716;SDS011;18301;51.076;17.046;2022-09-09T15:56:50;4.00;;;1.73;;
31716;SDS011;18301;51.076;17.046;2022-09-09T16:06:57;2.28;;;1.60;;
31716;SDS011;18301;51.076;17.046;2022-09-09T16:12:02;2.65;;;1.88;;
31716;SDS011;18301;51.076;17.046;2022-09-09T16:17:07;3.90;;;2.58;;
31716;SDS011;18301;51.076;17.046;2022-09-09T16:22:09;5.60;;;2.50;;
31716;SDS011;18301;51.076;17.046;2022-09-09T16:27:11;6.18;;;3.60;;
31716;SDS011;18301;51.076;17.046;2022-09-09T16:32:12;6.28;;;3.20;;
31716;SDS011;18301;51.076;17.046;2022-09-09T16:37:14;3.13;;;2.45;;
31716;SDS011;18301;51.076;17.046;2022-09-09T16:42:15;2.40;;;1.80;;
31716;SDS011;18301;51.076;17.046;2022-09-09T16:47:18;5.00;;;2.20;;
31716;SDS011;18301;51.076;17.046;2022-09-09T16:52:19;4.30;;;2.83;;
31716;SDS011;18301;51.076;17.046;2022-09-09T16:57:21;5.22;;;2.42;;
31716;SDS011;18301;51.076;17.046;2022-09-09T17:02:22;3.10;;;1.90;;
31716;SDS011;18301;51.076;17.046;2022-09-09T17:07:25;2.88;;;1.83;;
31716;SDS011;18301;51.076;17.046;2022-09-09T17:12:27;5.88;;;3.75;;
31716;SDS011;18301;51.076;17.046;2022-09-09T17:17:29;31.52;;;20.58;;
31716;SDS011;18301;51.076;17.046;2022-09-09T17:22:32;6.50;;;5.05;;
31716;SDS011;18301;51.076;17.046;2022-09-09T17:27:34;8.10;;;4.95;;
31716;SDS011;18301;51.076;17.046;2022-09-09T17:32:35;3.03;;;2.30;;
31716;SDS011;18301;51.076;17.046;2022-09-09T17:37:37;6.30;;;2.95;;
31716;SDS011;18301;51.076;17.046;2022-09-09T17:42:39;3.60;;;3.03;;
31716;SDS011;18301;51.076;17.046;2022-09-09T17:47:41;17.95;;;12.60;;
31716;SDS011;18301;51.076;17.046;2022-09-09T17:52:44;32.38;;;11.65;;
31716;SDS011;18301;51.076;17.046;2022-09-09T17:57:45;26.10;;;10.48;;
31716;SDS011;18301;51.076;17.046;2022-09-09T18:02:47;16.27;;;7.75;;
31716;SDS011;18301;51.076;17.046;2022-09-09T18:07:49;7.00;;;3.22;;
31716;SDS011;18301;51.076;17.046;2022-09-09T18:12:50;5.50;;;2.45;;
31716;SDS011;18301;51.076;17.046;2022-09-09T18:17:52;5.82;;;3.20;;
31716;SDS011;18301;51.076;17.046;2022-09-09T18:22:54;3.42;;;2.30;;
31716;SDS011;18301;51.076;17.046;2022-09-09T18:27:55;7.78;;;2.00;;
31716;SDS011;18301;51.076;17.046;2022-09-09T18:32:58;6.18;;;2.50;;
31716;SDS011;18301;51.076;17.046;2022-09-09T18:38:00;3.60;;;2.33;;
31716;SDS011;18301;51.076;17.046;2022-09-09T18:43:02;4.15;;;2.13;;
31716;SDS011;18301;51.076;17.046;2022-09-09T18:48:03;4.97;;;2.40;;
31716;SDS011;18301;51.076;17.046;2022-09-09T18:53:05;5.32;;;1.98;;
31716;SDS011;18301;51.076;17.046;2022-09-09T18:58:07;4.45;;;1.95;;
31716;SDS011;18301;51.076;17.046;2022-09-09T19:03:08;3.70;;;1.95;;
31716;SDS011;18301;51.076;17.046;2022-09-09T19:08:10;2.83;;;2.10;;
31716;SDS011;18301;51.076;17.046;2022-09-09T19:13:12;5.18;;;2.42;;
31716;SDS011;18301;51.076;17.046;2022-09-09T19:18:14;5.75;;;2.35;;
31716;SDS011;18301;51.076;17.046;2022-09-09T19:23:15;4.43;;;2.65;;
31716;SDS011;18301;51.076;17.046;2022-09-09T19:28:17;7.18;;;2.42;;
31716;SDS011;18301;51.076;17.046;2022-09-09T19:33:19;4.00;;;2.47;;
31716;SDS011;18301;51.076;17.046;2022-09-09T19:38:20;6.85;;;2.40;;
31716;SDS011;18301;51.076;17.046;2022-09-09T19:43:23;8.07;;;2.83;;
31716;SDS011;18301;51.076;17.046;2022-09-09T19:48:25;6.57;;;3.13;;
31716;SDS011;18301;51.076;17.046;2022-09-09T19:53:34;4.68;;;2.50;;
31716;SDS011;18301;51.076;17.046;2022-09-09T19:58:38;4.38;;;2.65;;
31716;SDS011;18301;51.076;17.046;2022-09-09T20:03:41;3.92;;;2.90;;
31716;SDS011;18301;51.076;17.046;2022-09-09T20:08:44;3.45;;;2.60;;
31716;SDS011;18301;51.076;17.046;2022-09-09T20:13:47;7.35;;;3.17;;
31716;SDS011;18301;51.076;17.046;2022-09-09T20:18:53;5.28;;;2.72;;
31716;SDS011;18301;51.076;17.046;2022-09-09T20:23:58;7.72;;;2.85;;
31716;SDS011;18301;51.076;17.046;2022-09-09T20:29:01;5.80;;;2.90;;
31716;SDS011;18301;51.076;17.046;2022-09-09T20:34:12;7.30;;;3.13;;
31716;SDS011;18301;51.076;17.046;2022-09-09T20:39:19;4.97;;;3.00;;
31716;SDS011;18301;51.076;17.046;2022-09-09T20:44:23;4.43;;;2.75;;
31716;SDS011;18301;51.076;17.046;2022-09-09T20:49:25;6.57;;;3.40;;
31716;SDS011;18301;51.076;17.046;2022-09-09T20:54:27;5.70;;;2.97;;
31716;SDS011;18301;51.076;17.046;2022-09-09T20:59:32;7.00;;;3.15;;
31716;SDS011;18301;51.076;17.046;2022-09-09T21:04:35;6.88;;;3.22;;
31716;SDS011;18301;51.076;17.046;2022-09-09T21:09:38;4.40;;;2.72;;
31716;SDS011;18301;51.076;17.046;2022-09-09T21:14:41;6.45;;;2.95;;
31716;SDS011;18301;51.076;17.046;2022-09-09T21:19:42;5.43;;;2.38;;
31716;SDS011;18301;51.076;17.046;2022-09-09T21:24:45;3.47;;;2.25;;
31716;SDS011;18301;51.076;17.046;2022-09-09T21:29:47;3.05;;;2.17;;
31716;SDS011;18301;51.076;17.046;2022-09-09T21:34:50;3.20;;;2.30;;
31716;SDS011;18301;51.076;17.046;2022-09-09T21:39:51;4.53;;;2.30;;
31716;SDS011;18301;51.076;17.046;2022-09-09T21:44:53;2.88;;;1.90;;
31716;SDS011;18301;51.076;17.046;2022-09-09T21:49:55;4.25;;;3.20;;
31716;SDS011;18301;51.076;17.046;2022-09-09T21:54:57;4.60;;;2.83;;
31716;SDS011;18301;51.076;17.046;2022-09-09T21:59:58;5.22;;;2.97;;
31716;SDS011;18301;51.076;17.046;2022-09-09T22:05:00;5.55;;;2.80;;
31716;SDS011;18301;51.076;17.046;2022-09-09T22:10:02;2.45;;;2.15;;
31716;SDS011;18301;51.076;17.046;2022-09-09T22:15:04;5.78;;;2.15;;
31716;SDS011;18301;51.076;17.046;2022-09-09T22:20:08;2.97;;;2.05;;
31716;SDS011;18301;51.076;17.046;2022-09-09T22:25:10;3.63;;;1.67;;
31716;SDS011;18301;51.076;17.046;2022-09-09T22:30:12;3.67;;;2.15;;
31716;SDS011;18301;51.076;17.046;2022-09-09T22:35:13;4.55;;;1.63;;
31716;SDS011;18301;51.076;17.046;2022-09-09T22:40:15;3.90;;;1.58;;
31716;SDS011;18301;51.076;17.046;2022-09-09T22:45:16;3.83;;;1.35;;
31716;SDS011;18301;51.076;17.046;2022-09-09T22:50:18;3.30;;;1.70;;
31716;SDS011;18301;51.076;17.046;2022-09-09T22:55:20;2.50;;;1.60;;
31716;SDS011;18301;51.076;17.046;2022-09-09T23:00:22;3.33;;;1.67;;
31716;SDS011;18301;51.076;17.046;2022-09-09T23:05:25;2.78;;;1.45;;
31716;SDS011;18301;51.076;17.046;2022-09-09T23:10:27;3.15;;;1.60;;
31716;SDS011;18301;51.076;17.046;2022-09-09T23:15:29;2.85;;;1.30;;
31716;SDS011;18301;51.076;17.046;2022-09-09T23:20:31;5.30;;;1.88;;
31716;SDS011;18301;51.076;17.046;2022-09-09T23:25:34;4.63;;;1.70;;
31716;SDS011;18301;51.076;17.046;2022-09-09T23:30:40;3.78;;;1.50;;
31716;SDS011;18301;51.076;17.046;2022-09-09T23:35:42;3.83;;;1.48;;
31716;SDS011;18301;51.076;17.046;2022-09-09T23:40:44;2.35;;;1.25;;
31716;SDS011;18301;51.076;17.046;2022-09-09T23:45:47;2.10;;;1.40;;
31716;SDS011;18301;51.076;17.046;2022-09-09T23:50:50;2.83;;;1.13;;
31716;SDS011;18301;51.076;17.046;2022-09-09T23:55:52;1.33;;;1.23;;
